createdAt,value
2022-10-20T00:01:59.874Z,12.44
2022-10-20T00:04:29.742Z,12.48
2022-10-20T00:06:57.707Z,12.73
2022-10-20T00:09:27.119Z,13.00
2022-10-20T00:11:55.105Z,13.04
2022-10-20T00:14:23.054Z,13.07
2022-10-20T00:16:50.984Z,13.15
2022-10-20T00:19:18.998Z,13.20
2022-10-20T00:21:46.959Z,13.19
2022-10-20T00:24:14.889Z,13.36
2022-10-20T00:26:44.195Z,13.28
2022-10-20T00:29:12.606Z,13.25
2022-10-20T00:31:40.584Z,13.23
2022-10-20T00:34:08.545Z,13.11
2022-10-20T00:36:36.468Z,12.99
2022-10-20T00:39:05.634Z,12.73
2022-10-20T00:41:34.190Z,12.58
2022-10-20T00:44:03.906Z,12.35
2022-10-20T00:46:34.396Z,12.11
2022-10-20T00:49:03.987Z,11.91
2022-10-20T00:51:32.249Z,11.74
2022-10-20T00:54:02.406Z,11.55
2022-10-20T00:56:30.407Z,11.36
2022-10-20T00:58:58.353Z,11.15
2022-10-20T01:01:27.968Z,10.98
2022-10-20T01:03:56.013Z,10.84
2022-10-20T01:06:24.090Z,10.70
2022-10-20T01:08:52.366Z,10.64
2022-10-20T01:11:24.672Z,10.55
2022-10-20T01:14:12.051Z,10.49
2022-10-20T01:16:46.798Z,10.47
2022-10-20T01:19:34.261Z,10.40
2022-10-20T01:22:12.668Z,10.34
2022-10-20T01:24:50.281Z,10.27
2022-10-20T01:27:28.557Z,10.18
2022-10-20T01:29:59.407Z,10.12
2022-10-20T01:32:30.476Z,10.11
2022-10-20T01:35:01.362Z,10.08
2022-10-20T01:37:48.551Z,10.07
2022-10-20T01:40:20.011Z,10.04
2022-10-20T01:42:50.197Z,9.99
2022-10-20T01:45:18.669Z,9.99
2022-10-20T01:47:46.774Z,9.90
2022-10-20T01:50:14.705Z,9.89
2022-10-20T01:52:42.657Z,9.82
2022-10-20T01:55:14.791Z,9.83
2022-10-20T01:57:48.707Z,9.86
2022-10-20T02:00:18.109Z,9.83
2022-10-20T02:02:57.495Z,9.84
2022-10-20T02:05:34.523Z,9.91
2022-10-20T02:08:06.850Z,9.90
2022-10-20T02:10:37.484Z,9.98
2022-10-20T02:13:06.099Z,10.03
2022-10-20T02:15:36.082Z,9.99
2022-10-20T02:18:05.338Z,10.04
2022-10-20T02:20:33.404Z,9.94
2022-10-20T02:23:01.616Z,9.83
2022-10-20T02:25:29.600Z,10.00
2022-10-20T02:27:57.568Z,9.94
2022-10-20T02:30:25.630Z,9.92
2022-10-20T02:32:54.988Z,9.83
2022-10-20T02:35:24.607Z,9.81
2022-10-20T02:37:52.571Z,9.76
2022-10-20T02:40:22.293Z,9.70
2022-10-20T02:42:50.303Z,9.66
2022-10-20T02:45:18.556Z,9.57
2022-10-20T02:47:46.492Z,9.44
2022-10-20T02:50:17.136Z,9.53
2022-10-20T02:52:45.127Z,9.50
2022-10-20T02:55:13.151Z,9.36
2022-10-20T02:57:41.193Z,9.50
2022-10-20T03:00:10.181Z,9.49
2022-10-20T03:02:38.251Z,9.48
2022-10-20T03:05:06.923Z,9.47
2022-10-20T03:07:36.569Z,9.46
2022-10-20T03:10:05.244Z,9.46
2022-10-20T03:12:33.211Z,9.43
2022-10-20T03:15:01.214Z,9.38
2022-10-20T03:17:29.175Z,9.36
2022-10-20T03:19:57.149Z,9.38
2022-10-20T03:22:25.225Z,9.34
2022-10-20T03:24:54.570Z,9.34
2022-10-20T03:27:22.566Z,9.39
2022-10-20T03:29:50.545Z,9.41
2022-10-20T03:32:18.607Z,9.37
2022-10-20T03:34:46.589Z,9.33
2022-10-20T03:37:14.571Z,9.29
2022-10-20T03:39:42.862Z,9.30
2022-10-20T03:42:12.214Z,9.24
2022-10-20T03:44:40.150Z,9.26
2022-10-20T03:47:08.136Z,9.28
2022-10-20T03:49:36.074Z,9.30
2022-10-20T03:52:04.092Z,9.27
2022-10-20T03:54:32.057Z,9.25
2022-10-20T03:57:00.038Z,9.25
2022-10-20T03:59:30.494Z,9.22
2022-10-20T04:01:58.708Z,9.14
2022-10-20T04:04:26.791Z,9.10
2022-10-20T04:06:54.739Z,9.07
2022-10-20T04:09:22.659Z,9.07
2022-10-20T04:11:50.603Z,9.09
2022-10-20T04:14:18.596Z,9.04
2022-10-20T04:16:47.884Z,9.01
2022-10-20T04:19:16.046Z,9.02
2022-10-20T04:21:43.978Z,9.02
2022-10-20T04:24:12.040Z,9.06
2022-10-20T04:26:40.037Z,9.11
2022-10-20T04:29:08.031Z,9.10
2022-10-20T04:31:36.007Z,9.17
2022-10-20T04:34:05.325Z,9.24
2022-10-20T04:36:33.293Z,9.27
2022-10-20T04:39:01.285Z,9.32
2022-10-20T04:41:29.200Z,9.36
2022-10-20T04:43:57.246Z,9.45
2022-10-20T04:46:26.741Z,9.48
2022-10-20T04:48:54.808Z,9.51
2022-10-20T04:51:24.129Z,9.59
2022-10-20T04:53:52.159Z,9.67
2022-10-20T04:56:21.261Z,9.64
2022-10-20T04:58:49.937Z,9.64
2022-10-20T05:01:18.241Z,9.65
2022-10-20T05:03:46.194Z,9.66
2022-10-20T05:06:15.330Z,9.55
2022-10-20T05:08:46.687Z,9.65
2022-10-20T05:11:15.043Z,9.68
2022-10-20T05:13:42.979Z,9.70
2022-10-20T05:16:10.967Z,9.75
2022-10-20T05:18:39.010Z,9.76
2022-10-20T05:21:09.470Z,9.92
2022-10-20T05:23:38.135Z,10.13
2022-10-20T05:26:08.154Z,10.33
2022-10-20T05:28:36.122Z,10.53
2022-10-20T05:31:04.090Z,10.72
2022-10-20T05:33:32.081Z,10.86
2022-10-20T05:36:00.031Z,10.98
2022-10-20T05:38:28.000Z,11.06
2022-10-20T05:40:55.977Z,11.30
2022-10-20T05:43:25.370Z,11.47
2022-10-20T05:45:55.273Z,11.71
2022-10-20T05:48:23.194Z,11.89
2022-10-20T05:50:51.231Z,12.05
2022-10-20T05:53:19.879Z,12.12
2022-10-20T05:55:47.888Z,12.28
2022-10-20T05:58:17.672Z,12.40
2022-10-20T06:00:53.022Z,12.54
2022-10-20T06:03:23.747Z,12.67
2022-10-20T06:05:58.730Z,12.91
2022-10-20T06:08:26.819Z,13.10
2022-10-20T06:10:54.811Z,13.33
2022-10-20T06:13:22.790Z,13.52
2022-10-20T06:15:52.161Z,13.76
2022-10-20T06:18:20.115Z,13.85
2022-10-20T06:20:48.091Z,13.90
2022-10-20T06:23:16.027Z,13.90
2022-10-20T06:25:44.049Z,13.92
2022-10-20T06:28:11.967Z,13.99
2022-10-20T06:30:39.968Z,14.09
2022-10-20T06:33:12.408Z,14.12
2022-10-20T06:35:40.386Z,14.15
2022-10-20T06:38:08.355Z,14.18
2022-10-20T06:40:36.320Z,14.23
2022-10-20T06:43:04.291Z,14.24
2022-10-20T06:45:32.263Z,14.18
2022-10-20T06:48:00.208Z,14.16
2022-10-20T06:50:29.572Z,14.19
2022-10-20T06:52:57.505Z,14.17
2022-10-20T06:55:25.567Z,14.17
2022-10-20T06:57:53.528Z,14.25
2022-10-20T07:00:21.597Z,14.25
2022-10-20T07:02:49.587Z,14.35
2022-10-20T07:05:17.740Z,14.33
2022-10-20T07:07:47.085Z,14.38
2022-10-20T07:10:15.020Z,14.44
2022-10-20T07:12:42.959Z,14.47
2022-10-20T07:15:11.715Z,14.40
2022-10-20T07:17:39.654Z,14.53
2022-10-20T07:20:08.648Z,14.64
2022-10-20T07:22:38.444Z,14.80
2022-10-20T07:25:09.388Z,14.85
2022-10-20T07:27:37.350Z,14.83
2022-10-20T07:30:05.956Z,14.93
2022-10-20T07:32:34.130Z,15.06
2022-10-20T07:35:02.416Z,15.09
2022-10-20T07:37:30.375Z,15.25
2022-10-20T07:39:58.367Z,15.45
2022-10-20T07:42:27.827Z,15.62
2022-10-20T07:44:55.744Z,15.68
2022-10-20T07:47:23.926Z,15.95
2022-10-20T07:49:51.965Z,16.14
2022-10-20T07:52:19.934Z,16.15
2022-10-20T07:54:47.916Z,16.17
2022-10-20T07:57:15.877Z,16.21
2022-10-20T07:59:45.276Z,16.24
2022-10-20T08:02:13.766Z,16.31
2022-10-20T08:04:44.078Z,16.36
2022-10-20T08:07:12.081Z,16.36
2022-10-20T08:09:40.090Z,16.36
2022-10-20T08:12:08.066Z,16.53
2022-10-20T08:14:38.018Z,16.59
2022-10-20T08:17:07.419Z,16.70
2022-10-20T08:19:51.338Z,16.95
2022-10-20T08:22:20.057Z,17.03
2022-10-20T08:24:48.014Z,17.03
2022-10-20T08:27:15.984Z,17.05
2022-10-20T08:29:50.787Z,17.14
2022-10-20T08:32:29.437Z,17.23
2022-10-20T08:34:57.403Z,17.31
2022-10-20T08:37:25.376Z,17.30
2022-10-20T08:39:53.336Z,17.17
2022-10-20T08:42:21.312Z,17.13
2022-10-20T08:44:49.263Z,17.20
2022-10-20T08:47:26.757Z,17.39
2022-10-20T08:49:58.800Z,17.47
2022-10-20T08:52:26.966Z,17.68
2022-10-20T08:54:56.164Z,17.82
2022-10-20T08:57:25.260Z,17.95
2022-10-20T08:59:53.845Z,18.18
2022-10-20T09:02:22.171Z,18.31
2022-10-20T09:04:51.372Z,18.30
2022-10-20T09:07:25.793Z,18.29
2022-10-20T09:09:53.806Z,18.17
2022-10-20T09:12:21.777Z,18.29
2022-10-20T09:14:49.742Z,18.42
2022-10-20T09:17:18.370Z,18.46
2022-10-20T09:19:48.779Z,18.58
2022-10-20T09:22:16.745Z,18.83
2022-10-20T09:24:46.117Z,19.02
2022-10-20T09:27:20.277Z,18.99
2022-10-20T09:29:48.166Z,19.05
2022-10-20T09:32:45.536Z,19.10
2022-10-20T09:35:20.446Z,18.84
2022-10-20T09:37:52.993Z,19.01
2022-10-20T09:40:22.749Z,18.97
2022-10-20T09:42:52.004Z,19.04
2022-10-20T09:45:22.247Z,18.86
2022-10-20T09:47:52.083Z,18.94
2022-10-20T09:50:21.285Z,18.88
2022-10-20T09:52:49.210Z,18.84
2022-10-20T09:55:28.389Z,19.06
2022-10-20T09:57:56.446Z,19.24
2022-10-20T10:00:36.905Z,19.59
2022-10-20T10:03:19.945Z,19.76
2022-10-20T10:05:49.698Z,20.17
2022-10-20T10:08:17.727Z,20.00
2022-10-20T10:10:47.538Z,20.19
2022-10-20T10:13:25.043Z,20.50
2022-10-20T10:16:03.960Z,20.49
2022-10-20T10:18:31.931Z,20.94
2022-10-20T10:21:01.641Z,21.05
2022-10-20T10:23:29.902Z,21.26
2022-10-20T10:26:02.118Z,21.51
2022-10-20T10:28:33.638Z,21.62
2022-10-20T10:31:21.887Z,21.74
2022-10-20T10:33:51.487Z,21.28
2022-10-20T10:36:27.039Z,21.04
2022-10-20T10:38:55.196Z,21.02
2022-10-20T10:41:27.469Z,21.10
2022-10-20T10:43:59.141Z,21.09
2022-10-20T10:46:28.640Z,20.95
2022-10-20T10:49:30.098Z,21.31
2022-10-20T10:52:02.165Z,21.69
2022-10-20T10:57:12.658Z,22.26
2022-10-20T10:59:42.145Z,22.45
2022-10-20T11:02:43.827Z,22.34
2022-10-20T11:05:41.358Z,22.38
2022-10-20T11:08:15.179Z,23.02
2022-10-20T11:10:46.637Z,23.86
2022-10-20T11:13:26.030Z,24.69
2022-10-20T11:16:01.555Z,24.45
2022-10-20T11:18:55.267Z,23.92
2022-10-20T11:21:27.430Z,23.57
2022-10-20T11:24:09.824Z,24.10
2022-10-20T11:26:38.286Z,24.43
2022-10-20T11:29:11.034Z,25.53
2022-10-20T11:31:42.037Z,25.73
2022-10-20T11:34:13.083Z,26.49
2022-10-20T11:36:42.719Z,27.88
2022-10-20T11:39:13.048Z,28.66
2022-10-20T11:41:44.034Z,28.88
2022-10-20T11:44:15.936Z,27.76
2022-10-20T11:46:46.549Z,28.20
2022-10-20T11:49:14.550Z,26.84
2022-10-20T11:52:22.567Z,26.54
2022-10-20T11:55:00.562Z,25.35
2022-10-20T11:57:33.152Z,24.07
2022-10-20T12:00:23.729Z,23.49
2022-10-20T12:03:24.796Z,22.63
2022-10-20T12:06:10.163Z,21.96
2022-10-20T12:09:04.245Z,21.73
2022-10-20T12:11:34.881Z,21.45
2022-10-20T12:14:08.136Z,21.04
2022-10-20T12:17:05.228Z,20.86
2022-10-20T12:19:33.544Z,20.67
2022-10-20T12:22:02.806Z,20.56
2022-10-20T12:24:32.516Z,20.49
2022-10-20T12:27:28.853Z,20.27
2022-10-20T12:30:01.281Z,20.15
2022-10-20T12:32:58.541Z,20.15
2022-10-20T12:35:54.505Z,20.25
2022-10-20T12:38:22.658Z,20.26
2022-10-20T12:40:58.006Z,20.26
2022-10-20T12:43:28.322Z,20.13
2022-10-20T12:45:59.083Z,19.94
2022-10-20T12:48:28.378Z,19.95
2022-10-20T12:50:56.308Z,19.90
2022-10-20T12:53:26.894Z,19.72
2022-10-20T12:55:57.713Z,19.65
2022-10-20T12:58:29.939Z,19.70
2022-10-20T13:01:09.846Z,19.69
2022-10-20T13:03:47.124Z,19.61
2022-10-20T13:06:40.482Z,19.60
2022-10-20T13:09:23.980Z,19.70
2022-10-20T13:12:06.098Z,19.69
2022-10-20T13:14:50.217Z,19.75
2022-10-20T13:17:21.865Z,19.78
2022-10-20T13:20:00.380Z,19.72
2022-10-20T13:22:34.261Z,19.61
2022-10-20T13:25:02.274Z,19.69
2022-10-20T13:27:30.197Z,19.66
2022-10-20T13:29:58.167Z,19.68
2022-10-20T13:32:28.654Z,19.57
2022-10-20T13:35:00.169Z,19.53
2022-10-20T13:37:35.649Z,19.62
2022-10-20T13:40:10.642Z,19.66
2022-10-20T13:42:46.399Z,19.47
2022-10-20T13:45:21.081Z,19.42
2022-10-20T13:47:51.510Z,19.45
2022-10-20T13:50:22.684Z,19.47
2022-10-20T13:52:51.967Z,19.55
2022-10-20T13:55:21.352Z,19.27
2022-10-20T13:57:55.540Z,19.35
2022-10-20T14:00:25.622Z,19.24
2022-10-20T14:02:55.571Z,19.29
2022-10-20T14:05:24.953Z,19.28
2022-10-20T14:07:53.498Z,19.29
2022-10-20T14:10:26.263Z,19.27
2022-10-20T14:12:54.545Z,19.23
2022-10-20T14:15:27.736Z,19.13
2022-10-20T14:18:00.211Z,19.06
2022-10-20T14:20:30.301Z,18.95
2022-10-20T14:22:58.966Z,18.75
2022-10-20T14:25:27.638Z,18.74
2022-10-20T14:27:56.260Z,18.65
2022-10-20T14:30:26.664Z,18.50
2022-10-20T14:32:54.723Z,18.52
2022-10-20T14:35:30.249Z,18.34
2022-10-20T14:38:00.699Z,18.06
2022-10-20T14:40:29.489Z,18.18
2022-10-20T14:43:04.710Z,18.12
2022-10-20T14:48:06.094Z,18.00
2022-10-20T14:50:36.502Z,17.90
2022-10-20T14:53:27.378Z,17.79
2022-10-20T14:55:55.474Z,17.70
2022-10-20T14:58:32.312Z,17.60
2022-10-20T15:01:32.155Z,17.36
2022-10-20T15:06:41.627Z,17.14
2022-10-20T15:09:18.174Z,17.06
2022-10-20T15:11:46.197Z,16.93
2022-10-20T15:14:15.642Z,16.81
2022-10-20T15:16:44.779Z,16.71
2022-10-20T15:19:31.315Z,16.54
2022-10-20T15:22:11.142Z,16.40
2022-10-20T15:24:39.170Z,16.24
2022-10-20T15:27:07.168Z,16.16
2022-10-20T15:29:35.106Z,16.09
2022-10-20T15:32:03.067Z,15.99
2022-10-20T15:34:30.991Z,15.88
2022-10-20T15:36:58.942Z,15.81
2022-10-20T15:39:28.266Z,15.66
2022-10-20T15:41:56.210Z,15.62
2022-10-20T15:44:24.926Z,15.52
2022-10-20T15:46:54.234Z,15.24
2022-10-20T15:49:22.360Z,15.34
2022-10-20T15:51:51.459Z,15.19
2022-10-20T15:54:20.366Z,15.06
2022-10-20T15:56:49.854Z,14.93
2022-10-20T15:59:17.777Z,14.79
2022-10-20T16:01:45.721Z,14.67
2022-10-20T16:04:22.391Z,14.52
2022-10-20T16:06:52.462Z,14.36
2022-10-20T16:09:21.114Z,14.23
2022-10-20T16:11:50.486Z,14.11
2022-10-20T16:14:18.487Z,13.99
2022-10-20T16:16:46.474Z,13.89
2022-10-20T16:19:14.429Z,13.81
2022-10-20T16:21:42.394Z,13.70
2022-10-20T16:24:11.500Z,13.67
2022-10-20T16:26:39.471Z,13.62
2022-10-20T16:29:08.865Z,13.57
2022-10-20T16:31:36.851Z,13.48
2022-10-20T16:34:04.797Z,13.46
2022-10-20T16:36:32.776Z,13.38
2022-10-20T16:39:00.970Z,13.31
2022-10-20T16:41:29.016Z,13.23
2022-10-20T16:44:00.239Z,13.14
2022-10-20T16:46:30.236Z,13.05
2022-10-20T16:48:58.241Z,12.96
2022-10-20T16:51:26.198Z,12.91
2022-10-20T16:53:57.337Z,12.86
2022-10-20T16:56:27.643Z,12.79
2022-10-20T16:58:55.603Z,12.75
2022-10-20T17:01:23.933Z,12.67
2022-10-20T17:03:53.854Z,12.59
2022-10-20T17:06:22.842Z,12.57
2022-10-20T17:08:50.849Z,12.43
2022-10-20T17:11:19.630Z,12.48
2022-10-20T17:13:47.647Z,12.32
2022-10-20T17:16:16.985Z,12.35
2022-10-20T17:18:44.978Z,12.33
2022-10-20T17:21:14.426Z,12.27
2022-10-20T17:23:43.082Z,12.17
2022-10-20T17:26:12.672Z,12.17
2022-10-20T17:28:40.690Z,12.11
2022-10-20T17:31:09.150Z,12.05
2022-10-20T17:33:37.791Z,12.01
2022-10-20T17:36:06.503Z,11.96
2022-10-20T17:38:35.832Z,11.91
2022-10-20T17:41:04.463Z,11.89
2022-10-20T17:43:32.502Z,11.74
2022-10-20T17:46:01.368Z,11.69
2022-10-20T17:48:29.519Z,11.58
2022-10-20T17:51:01.772Z,11.49
2022-10-20T17:53:29.869Z,11.30
2022-10-20T17:56:02.809Z,11.26
2022-10-20T17:58:31.000Z,11.23
2022-10-20T18:01:08.571Z,11.23
2022-10-20T18:03:36.856Z,11.26
2022-10-20T18:06:09.241Z,11.26
2022-10-20T18:08:37.265Z,11.17
2022-10-20T18:11:09.970Z,11.21
2022-10-20T18:13:38.688Z,11.13
2022-10-20T18:16:08.114Z,11.02
2022-10-20T18:18:36.266Z,11.02
2022-10-20T18:21:04.433Z,10.97
2022-10-20T18:23:33.485Z,10.95
2022-10-20T18:26:06.320Z,10.95
2022-10-20T18:28:35.638Z,10.92
2022-10-20T18:31:07.274Z,10.90
2022-10-20T18:33:35.294Z,10.81
2022-10-20T18:36:04.418Z,10.73
2022-10-20T18:38:32.501Z,10.70
2022-10-20T18:41:05.295Z,10.67
2022-10-20T18:43:33.271Z,10.62
2022-10-20T18:46:02.963Z,10.53
2022-10-20T18:48:30.928Z,10.48
2022-10-20T18:50:59.767Z,10.39
2022-10-20T18:53:28.177Z,10.29
2022-10-20T18:56:00.259Z,10.23
2022-10-20T18:58:28.387Z,10.19
2022-10-20T19:01:00.279Z,10.11
2022-10-20T19:03:31.570Z,10.03
2022-10-20T19:06:00.387Z,10.00
2022-10-20T19:08:28.487Z,9.99
2022-10-20T19:10:56.532Z,9.92
2022-10-20T19:13:26.216Z,9.88
2022-10-20T19:15:54.157Z,9.85
2022-10-20T19:18:22.162Z,9.80
2022-10-20T19:20:58.007Z,9.75
2022-10-20T19:23:26.188Z,9.67
2022-10-20T19:26:07.316Z,9.65
2022-10-20T19:28:36.339Z,9.61
2022-10-20T19:31:06.338Z,9.53
2022-10-20T19:33:38.726Z,9.45
2022-10-20T19:36:08.271Z,9.43
2022-10-20T19:38:37.241Z,9.17
2022-10-20T19:41:05.314Z,9.35
2022-10-20T19:43:34.445Z,9.33
2022-10-20T19:46:02.391Z,9.27
2022-10-20T19:48:30.416Z,9.23
2022-10-20T19:50:58.368Z,9.28
2022-10-20T19:53:27.928Z,9.27
2022-10-20T19:55:55.972Z,9.24
2022-10-20T19:58:24.048Z,9.20
2022-10-20T20:00:52.855Z,9.18
2022-10-20T20:03:20.899Z,9.14
2022-10-20T20:05:48.902Z,9.05
2022-10-20T20:08:17.751Z,9.09
2022-10-20T20:10:53.371Z,9.04
2022-10-20T20:13:21.344Z,9.04
2022-10-20T20:15:49.366Z,9.00
2022-10-20T20:18:18.232Z,8.98
2022-10-20T20:20:46.997Z,8.92
2022-10-20T20:23:15.004Z,8.88
2022-10-20T20:25:44.540Z,8.75
2022-10-20T20:28:13.990Z,8.79
2022-10-20T20:30:41.956Z,8.74
2022-10-20T20:33:10.668Z,8.71
2022-10-20T20:35:38.657Z,8.67
2022-10-20T20:38:06.735Z,8.65
2022-10-20T20:40:34.698Z,8.59
2022-10-20T20:43:02.689Z,8.48
2022-10-20T20:45:32.051Z,8.39
2022-10-20T20:47:59.984Z,8.44
2022-10-20T20:50:28.010Z,8.52
2022-10-20T20:52:55.964Z,8.54
2022-10-20T20:55:23.924Z,8.54
2022-10-20T20:57:51.836Z,8.51
2022-10-20T21:00:19.815Z,8.51
2022-10-20T21:02:49.177Z,8.49
2022-10-20T21:05:17.269Z,8.48
2022-10-20T21:07:45.231Z,8.42
2022-10-20T21:10:13.203Z,8.39
2022-10-20T21:12:41.433Z,8.24
2022-10-20T21:15:10.307Z,8.26
2022-10-20T21:17:38.275Z,8.20
2022-10-20T21:20:08.925Z,8.26
2022-10-20T21:22:37.042Z,8.21
2022-10-20T21:25:05.918Z,8.26
2022-10-20T21:27:33.858Z,8.29
2022-10-20T21:30:01.879Z,8.24
2022-10-20T21:32:29.862Z,8.22
2022-10-20T21:34:57.807Z,8.20
2022-10-20T21:37:27.157Z,8.19
2022-10-20T21:39:55.248Z,8.13
2022-10-20T21:42:23.232Z,8.10
2022-10-20T21:44:51.171Z,8.09
2022-10-20T21:47:19.125Z,8.06
2022-10-20T21:49:47.100Z,8.06
2022-10-20T21:52:15.130Z,8.02
2022-10-20T21:54:44.561Z,7.98
2022-10-20T21:57:12.820Z,7.95
2022-10-20T21:59:40.816Z,7.98
2022-10-20T22:02:13.659Z,8.02
2022-10-20T22:04:41.614Z,8.00
2022-10-20T22:07:09.580Z,8.02
2022-10-20T22:09:37.521Z,8.04
2022-10-20T22:12:07.080Z,8.01
2022-10-20T22:14:35.073Z,7.95
2022-10-20T22:17:03.026Z,7.96
2022-10-20T22:19:31.058Z,7.92
2022-10-20T22:21:59.751Z,7.97
2022-10-20T22:24:27.940Z,7.91
2022-10-20T22:26:55.930Z,7.96
2022-10-20T22:29:25.264Z,7.99
2022-10-20T22:31:53.233Z,8.03
2022-10-20T22:34:21.199Z,8.04
2022-10-20T22:36:49.190Z,8.06
2022-10-20T22:39:17.132Z,8.08
2022-10-20T22:41:45.129Z,8.09
2022-10-20T22:44:13.084Z,8.05
2022-10-20T22:46:42.416Z,8.03
2022-10-20T22:49:10.389Z,8.01
2022-10-20T22:51:38.330Z,8.04
2022-10-20T22:54:08.069Z,8.03
2022-10-20T22:56:36.059Z,8.00
2022-10-20T22:59:04.002Z,8.00
2022-10-20T23:01:32.015Z,7.97
2022-10-20T23:04:01.431Z,7.94
2022-10-20T23:06:29.424Z,7.90
2022-10-20T23:08:57.476Z,7.88
2022-10-20T23:11:25.429Z,7.85
2022-10-20T23:13:53.428Z,7.81
2022-10-20T23:16:21.474Z,7.84
2022-10-20T23:18:49.458Z,7.84
2022-10-20T23:21:18.806Z,7.81
2022-10-20T23:23:46.782Z,7.71
2022-10-20T23:26:14.669Z,7.73
2022-10-20T23:28:42.665Z,7.72
2022-10-20T23:31:11.366Z,7.75
2022-10-20T23:33:39.415Z,7.67
2022-10-20T23:36:08.055Z,7.66
2022-10-20T23:38:37.393Z,7.68
2022-10-20T23:41:05.634Z,7.72
2022-10-20T23:43:33.728Z,7.69
2022-10-20T23:46:01.830Z,7.69
2022-10-20T23:48:29.792Z,7.70
2022-10-20T23:50:57.748Z,7.73
2022-10-20T23:53:25.842Z,7.70
2022-10-20T23:55:55.176Z,7.73
2022-10-20T23:58:23.338Z,7.68
